Time;durP1;ratioP1;P1;durP2;ratioP2;P2;SDS_P1;SDS_P2;PMS_P1;PMS_P2;Temp;Humidity;BMP_temperature;BMP_pressure;BME280_temperature;BME280_humidity;BME280_pressure;Samples;Min_cycle;Max_cycle;Signal;HPM_P1;HPM_P2
2023/05/11 00:00:41;;;;;;;18.90;7.10;;;;;;;6.00;48.12;99459.52;104466;1263;107604;-80
2023/05/11 00:03:13;;;;;;;23.90;8.00;;;;;;;5.97;48.36;99461.21;104640;1262;99124;-78
2023/05/11 00:05:41;;;;;;;15.90;6.50;;;;;;;5.94;48.30;99463.81;104611;1262;97974;-78
2023/05/11 00:08:09;;;;;;;17.80;6.80;;;;;;;5.91;48.44;99463.95;104633;1262;110629;-78
2023/05/11 00:10:38;;;;;;;17.20;7.40;;;;;;;5.84;48.40;99466.05;104502;1267;98769;-78
2023/05/11 00:13:05;;;;;;;17.40;6.70;;;;;;;5.79;48.56;99467.52;104442;1268;107677;-78
2023/05/11 00:15:33;;;;;;;17.40;7.00;;;;;;;5.74;48.49;99464.75;104548;1268;97970;-79
2023/05/11 00:18:01;;;;;;;21.20;8.20;;;;;;;5.73;48.70;99463.73;104620;1264;98027;-80
2023/05/11 00:20:29;;;;;;;18.40;7.00;;;;;;;5.69;48.67;99464.85;104542;1263;110800;-78
2023/05/11 00:22:58;;;;;;;17.50;7.50;;;;;;;5.68;48.47;99465.58;104535;1266;98054;-78
2023/05/11 00:25:26;;;;;;;21.90;9.10;;;;;;;5.73;48.44;99463.23;104565;1267;107617;-78
2023/05/11 00:27:54;;;;;;;18.40;7.40;;;;;;;5.74;48.58;99461.05;104547;1266;97965;-77
2023/05/11 00:30:22;;;;;;;19.80;7.70;;;;;;;5.74;48.76;99458.08;104621;1268;97891;-78
2023/05/11 00:32:50;;;;;;;15.20;6.10;;;;;;;5.71;48.75;99458.39;104581;1268;111077;-78
2023/05/11 00:35:18;;;;;;;18.70;7.40;;;;;;;5.66;48.92;99455.79;104628;1266;97962;-78
2023/05/11 00:37:47;;;;;;;16.50;6.40;;;;;;;5.62;48.88;99455.96;104625;1267;106997;-81
2023/05/11 00:40:15;;;;;;;17.90;6.80;;;;;;;5.60;48.97;99455.89;104584;1266;98074;-78
2023/05/11 00:42:43;;;;;;;15.80;6.40;;;;;;;5.57;49.01;99453.38;104533;1267;97971;-78
2023/05/11 00:45:11;;;;;;;15.90;6.60;;;;;;;5.55;49.11;99454.52;104472;1267;112327;-78
2023/05/11 00:47:40;;;;;;;16.20;6.90;;;;;;;5.53;49.19;99448.47;104516;1267;99271;-77
2023/05/11 00:50:08;;;;;;;19.00;6.70;;;;;;;5.50;49.17;99446.11;104546;1267;107822;-78
2023/05/11 00:52:36;;;;;;;16.40;7.00;;;;;;;5.48;49.11;99444.67;104622;1266;97991;-78
2023/05/11 00:55:05;;;;;;;17.30;6.30;;;;;;;5.45;49.12;99445.48;104465;1264;97983;-78
2023/05/11 00:57:35;;;;;;;16.90;6.50;;;;;;;5.40;49.29;99445.52;104485;1263;110621;-78
2023/05/11 01:00:03;;;;;;;15.10;6.30;;;;;;;5.38;49.55;99447.90;104570;1266;100298;-78
2023/05/11 01:02:31;;;;;;;13.50;6.30;;;;;;;5.38;49.38;99445.83;104547;1263;108920;-78
2023/05/11 01:05:00;;;;;;;15.60;6.40;;;;;;;5.35;49.45;99448.20;104630;1267;97872;-78
2023/05/11 01:07:37;;;;;;;17.00;6.60;;;;;;;5.32;49.45;99449.05;104423;1267;98358;-78
2023/05/11 01:10:17;;;;;;;15.50;6.70;;;;;;;5.28;49.53;99449.60;104484;1265;110385;-78
2023/05/11 01:13:13;;;;;;;14.10;6.20;;;;;;;5.26;49.51;99451.98;104539;1263;98051;-78
2023/05/11 01:15:50;;;;;;;14.00;6.50;;;;;;;5.26;49.67;99446.36;104600;1267;107839;-78
2023/05/11 01:18:29;;;;;;;18.80;6.60;;;;;;;5.24;49.81;99447.34;104524;1267;97950;-78
2023/05/11 01:21:01;;;;;;;14.40;6.20;;;;;;;5.21;49.77;99444.09;104695;1262;97968;-77
2023/05/11 01:23:35;;;;;;;14.90;6.30;;;;;;;5.20;49.78;99446.08;104665;1262;111559;-78
2023/05/11 01:26:49;;;;;;;16.20;6.20;;;;;;;5.17;49.81;99443.92;104561;1267;97958;-78
2023/05/11 01:29:20;;;;;;;;;;;;;;;5.10;50.07;99438.06;104592;1263;106596;-78
2023/05/11 01:31:51;;;;;;;13.90;6.00;;;;;;;5.02;50.03;99441.92;104440;1266;97987;-78
2023/05/11 01:34:25;;;;;;;14.90;6.40;;;;;;;4.98;50.08;99443.88;104576;1267;97962;-81
2023/05/11 01:37:19;;;;;;;;;;;;;;;4.96;50.14;99444.29;104638;1267;110283;-78
2023/05/11 01:39:56;;;;;;;16.30;6.90;;;;;;;4.94;50.35;99445.80;104437;1268;99274;-79
2023/05/11 01:42:31;;;;;;;15.80;6.20;;;;;;;4.93;50.29;99444.27;104591;1263;106745;-79
2023/05/11 01:45:03;;;;;;;13.50;5.90;;;;;;;4.91;50.39;99444.15;104586;1263;98423;-77
2023/05/11 01:47:31;;;;;;;13.80;6.00;;;;;;;4.90;50.27;99444.19;104509;1271;97938;-77
2023/05/11 01:50:01;;;;;;;17.40;5.90;;;;;;;4.90;50.35;99447.89;104587;1268;111546;-79
2023/05/11 01:52:31;;;;;;;17.20;6.30;;;;;;;4.89;50.43;99448.11;104543;1268;98071;-78
2023/05/11 01:55:02;;;;;;;13.50;5.60;;;;;;;4.89;50.48;99450.23;104596;1268;107316;-78
2023/05/11 01:57:31;;;;;;;18.00;6.90;;;;;;;4.87;50.39;99447.70;104491;1262;98046;-78
2023/05/11 02:00:01;;;;;;;16.90;5.90;;;;;;;4.85;50.35;99445.30;104605;1266;99291;-78
2023/05/11 02:02:31;;;;;;;15.70;6.00;;;;;;;4.81;50.43;99445.65;104529;1263;111306;-80
2023/05/11 02:05:00;;;;;;;14.90;6.00;;;;;;;4.76;50.57;99442.17;104597;1267;97967;-82
2023/05/11 02:07:30;;;;;;;18.50;6.40;;;;;;;4.73;50.57;99441.73;104545;1263;108577;-83
2023/05/11 02:10:00;;;;;;;13.50;5.80;;;;;;;4.70;50.69;99447.16;104587;1268;97953;-78
2023/05/11 02:12:32;;;;;;;15.60;6.70;;;;;;;4.67;50.71;99440.11;104487;1268;97893;-78
2023/05/11 02:15:02;;;;;;;16.80;6.70;;;;;;;4.67;50.81;99445.73;104556;1268;111487;-79
2023/05/11 02:17:31;;;;;;;16.20;5.90;;;;;;;4.67;50.73;99445.55;104643;1268;97988;-80
2023/05/11 02:20:02;;;;;;;17.30;6.10;;;;;;;4.67;50.81;99442.40;104508;1262;107942;-80
2023/05/11 02:22:32;;;;;;;15.00;5.90;;;;;;;4.65;50.74;99448.10;104490;1263;99314;-77
2023/05/11 02:25:01;;;;;;;16.70;6.00;;;;;;;4.64;50.91;99449.00;104510;1268;98777;-78
2023/05/11 02:27:29;;;;;;;16.80;6.20;;;;;;;4.61;51.09;99445.42;104589;1266;110162;-77
2023/05/11 02:29:57;;;;;;;18.10;6.90;;;;;;;4.57;50.99;99443.48;104529;1267;98171;-78
2023/05/11 02:32:28;;;;;;;18.00;6.40;;;;;;;4.55;51.13;99448.31;104525;1268;106674;-76
2023/05/11 02:35:04;;;;;;;16.10;6.40;;;;;;;4.55;51.21;99447.95;104532;1268;99313;-77
2023/05/11 02:37:39;;;;;;;16.80;6.60;;;;;;;4.52;51.19;99446.16;104463;1262;99320;-77
2023/05/11 02:40:15;;;;;;;17.60;6.30;;;;;;;4.50;51.38;99447.84;104620;1268;111094;-79
2023/05/11 02:42:47;;;;;;;16.90;6.20;;;;;;;4.51;51.25;99454.45;104556;1268;97977;-78
2023/05/11 02:45:18;;;;;;;18.40;7.00;;;;;;;4.51;51.45;99454.63;104582;1266;108813;-78
2023/05/11 02:47:54;;;;;;;17.10;6.30;;;;;;;4.51;51.20;99454.81;104508;1267;98044;-78
2023/05/11 02:50:27;;;;;;;17.80;6.80;;;;;;;4.51;51.25;99454.42;104745;1268;98030;-78
2023/05/11 02:52:59;;;;;;;15.50;6.20;;;;;;;4.51;51.33;99455.35;104477;1268;110293;-79
2023/05/11 02:55:28;;;;;;;15.70;6.10;;;;;;;4.48;51.49;99458.63;104503;1273;97950;-78
2023/05/11 02:57:56;;;;;;;15.20;6.20;;;;;;;4.50;51.51;99460.31;104456;1266;106977;-78
2023/05/11 03:00:24;;;;;;;16.20;6.50;;;;;;;4.50;51.62;99460.63;104532;1268;98895;-77
2023/05/11 03:02:52;;;;;;;17.80;7.30;;;;;;;4.51;51.58;99458.68;104657;1262;97957;-78
2023/05/11 03:05:20;;;;;;;16.70;6.10;;;;;;;4.52;51.62;99457.23;104570;1267;110805;-80
2023/05/11 03:07:48;;;;;;;14.30;5.90;;;;;;;4.52;51.71;99458.45;104592;1265;98016;-78
2023/05/11 03:10:16;;;;;;;16.40;6.20;;;;;;;4.53;51.61;99465.08;104512;1268;107646;-78
2023/05/11 03:12:45;;;;;;;15.70;6.50;;;;;;;4.57;51.79;99468.08;104476;1268;97964;-78
2023/05/11 03:15:14;;;;;;;15.50;6.30;;;;;;;4.60;51.83;99469.02;104525;1268;97891;-78
2023/05/11 03:17:43;;;;;;;13.90;6.40;;;;;;;4.64;51.85;99469.03;104735;1267;111599;-78
2023/05/11 03:20:11;;;;;;;17.00;6.50;;;;;;;4.73;51.92;99473.22;104483;1269;98052;-78
2023/05/11 03:22:39;;;;;;;14.90;5.90;;;;;;;4.80;52.14;99472.05;104558;1275;106408;-78
2023/05/11 03:25:08;;;;;;;22.20;6.80;;;;;;;4.86;52.04;99468.65;104494;1267;99185;-78
2023/05/11 03:27:40;;;;;;;15.30;5.80;;;;;;;4.95;52.07;99468.96;104477;1266;97958;-76
2023/05/11 03:30:10;;;;;;;16.20;6.50;;;;;;;5.04;52.24;99471.56;104687;1266;110363;-78
2023/05/11 03:32:37;;;;;;;13.60;6.00;;;;;;;5.10;52.25;99471.33;104602;1266;98924;-78
2023/05/11 03:35:06;;;;;;;15.00;6.60;;;;;;;5.17;52.14;99471.01;104676;1262;106748;-78
2023/05/11 03:37:37;;;;;;;16.10;6.20;;;;;;;5.29;52.22;99466.23;104647;1263;97869;-78
2023/05/11 03:40:07;;;;;;;15.70;6.80;;;;;;;5.41;52.44;99467.30;104581;1268;98033;-77
2023/05/11 03:42:36;;;;;;;13.10;6.10;;;;;;;5.50;52.45;99474.64;106138;1262;111570;-78
2023/05/11 03:45:08;;;;;;;15.20;6.20;;;;;;;5.60;52.45;99472.99;107900;1262;95798;-78
2023/05/11 03:47:39;;;;;;;14.00;5.80;;;;;;;5.67;52.50;99474.08;104904;1268;107885;-78
2023/05/11 03:50:08;;;;;;;17.40;6.80;;;;;;;5.75;52.43;99475.23;107646;1263;96799;-78
2023/05/11 03:52:36;;;;;;;14.50;6.00;;;;;;;5.82;52.49;99472.30;107408;1263;97968;-76
2023/05/11 03:55:05;;;;;;;14.30;6.10;;;;;;;5.92;52.69;99473.42;108012;1262;112192;-76
2023/05/11 03:57:33;;;;;;;13.80;6.20;;;;;;;6.03;52.69;99473.98;106960;1265;97848;-77
2023/05/11 04:00:02;;;;;;;17.40;6.50;;;;;;;6.13;52.63;99479.87;105930;1266;107729;-77
2023/05/11 04:02:30;;;;;;;14.30;5.90;;;;;;;6.19;52.75;99480.80;107349;1262;97758;-77
2023/05/11 04:04:58;;;;;;;12.30;5.50;;;;;;;6.22;52.72;99480.83;108060;1263;95804;-77
2023/05/11 04:07:26;;;;;;;15.00;5.60;;;;;;;6.27;52.65;99483.81;107388;1263;113232;-77
2023/05/11 04:09:53;;;;;;;13.90;6.20;;;;;;;6.31;52.62;99483.42;105158;1262;97756;-78
2023/05/11 04:12:21;;;;;;;14.10;5.90;;;;;;;6.35;52.77;99480.58;104865;1266;108882;-76
2023/05/11 04:14:49;;;;;;;18.50;6.10;;;;;;;6.38;52.76;99482.73;104558;1268;99320;-78
2023/05/11 04:17:17;;;;;;;15.80;6.10;;;;;;;6.41;52.83;99484.17;104618;1266;98013;-77
2023/05/11 04:19:45;;;;;;;15.90;6.30;;;;;;;6.47;52.82;99483.39;104557;1266;112449;-78
2023/05/11 04:22:13;;;;;;;13.80;6.10;;;;;;;6.52;52.84;99485.73;104487;1278;98062;-78
2023/05/11 04:24:41;;;;;;;14.20;6.30;;;;;;;6.60;52.96;99483.94;104598;1269;107844;-78
2023/05/11 04:27:08;;;;;;;11.90;5.50;;;;;;;6.67;53.09;99485.53;104480;1268;97971;-79
2023/05/11 04:29:37;;;;;;;14.60;6.00;;;;;;;6.75;53.19;99484.62;104467;1263;98622;-78
2023/05/11 04:32:04;;;;;;;13.90;5.90;;;;;;;6.79;53.13;99484.79;104545;1262;112532;-79
2023/05/11 04:34:32;;;;;;;13.10;5.80;;;;;;;6.84;53.34;99482.04;104516;1268;97973;-78
2023/05/11 04:37:05;;;;;;;13.30;5.10;;;;;;;6.92;53.28;99483.63;104535;1279;106799;-78
2023/05/11 04:39:34;;;;;;;15.10;5.50;;;;;;;6.99;53.20;99482.70;104529;1266;97959;-78
2023/05/11 04:42:02;;;;;;;15.70;6.10;;;;;;;7.03;53.12;99486.20;104664;1267;97939;-78
2023/05/11 04:44:30;;;;;;;14.90;5.90;;;;;;;7.08;53.34;99485.29;104440;1269;111244;-78
2023/05/11 04:46:58;;;;;;;16.30;5.70;;;;;;;7.09;53.20;99488.05;104459;1267;98021;-78
2023/05/11 04:49:29;;;;;;;21.20;5.70;;;;;;;7.14;53.41;99490.41;104452;1277;107905;-78
2023/05/11 04:51:57;;;;;;;19.00;7.00;;;;;;;7.25;53.13;99491.45;104542;1262;98453;-79
2023/05/11 04:54:29;;;;;;;17.20;6.10;;;;;;;7.37;53.11;99491.88;104598;1267;97901;-78
2023/05/11 04:56:58;;;;;;;14.10;6.20;;;;;;;7.42;53.33;99493.35;104661;1267;112540;-78
2023/05/11 04:59:25;;;;;;;18.20;7.30;;;;;;;7.47;53.51;99496.11;104681;1268;97979;-78
2023/05/11 05:01:53;;;;;;;20.40;7.00;;;;;;;7.55;53.51;99500.46;104411;1265;107104;-78
2023/05/11 05:04:29;;;;;;;14.80;6.00;;;;;;;7.61;53.49;99500.67;104471;1264;98054;-81
2023/05/11 05:06:57;;;;;;;19.80;6.00;;;;;;;7.67;53.53;99501.79;104807;1263;97886;-82
2023/05/11 05:09:25;;;;;;;16.80;6.50;;;;;;;7.71;53.44;99501.57;104888;1263;112162;-81
2023/05/11 05:11:59;;;;;;;16.80;7.00;;;;;;;7.74;53.70;99501.02;104503;1268;98083;-82
2023/05/11 05:14:36;;;;;;;14.40;6.10;;;;;;;7.75;53.46;99504.70;104589;1276;107093;-82
2023/05/11 05:17:04;;;;;;;16.30;6.50;;;;;;;7.76;53.71;99507.98;104629;1268;98047;-80
2023/05/11 05:19:35;;;;;;;18.20;6.50;;;;;;;7.80;53.52;99512.53;104663;1270;97962;-83
2023/05/11 05:22:04;;;;;;;18.00;6.80;;;;;;;7.87;53.50;99505.83;104651;1276;110757;-84
2023/05/11 05:24:34;;;;;;;17.10;6.70;;;;;;;7.93;53.63;99510.80;104746;1262;97945;-87
2023/05/11 05:27:02;;;;;;;19.60;6.70;;;;;;;8.01;53.86;99513.71;104680;1263;107655;-83
2023/05/11 05:29:32;;;;;;;18.10;5.80;;;;;;;8.05;53.70;99515.97;104711;1268;97949;-82
2023/05/11 05:32:01;;;;;;;18.70;6.90;;;;;;;8.10;53.84;99516.58;104697;1276;97911;-80
2023/05/11 05:34:32;;;;;;;17.50;6.60;;;;;;;8.11;53.77;99515.66;104773;1268;110729;-84
2023/05/11 05:36:59;;;;;;;14.70;6.40;;;;;;;8.11;53.81;99512.80;104792;1267;97968;-83
2023/05/11 05:39:27;;;;;;;18.50;7.00;;;;;;;8.15;53.76;99516.79;104594;1268;107430;-79
2023/05/11 05:41:55;;;;;;;13.90;6.30;;;;;;;8.18;53.87;99513.99;104601;1265;98021;-75
2023/05/11 05:44:23;;;;;;;16.30;6.20;;;;;;;8.22;53.78;99513.78;104688;1266;98018;-75
2023/05/11 05:46:51;;;;;;;12.50;5.60;;;;;;;8.29;53.89;99515.15;104446;1263;112510;-77
2023/05/11 05:49:19;;;;;;;15.00;5.70;;;;;;;8.37;53.99;99514.73;104460;1269;97980;-77
2023/05/11 05:51:49;;;;;;;14.60;6.30;;;;;;;8.43;53.88;99511.94;104502;1276;107810;-76
2023/05/11 05:54:17;;;;;;;15.20;6.20;;;;;;;8.47;53.97;99515.06;104500;1270;98927;-79
2023/05/11 05:56:54;;;;;;;13.50;5.70;;;;;;;8.51;54.03;99513.66;104501;1268;97979;-82
2023/05/11 05:59:22;;;;;;;14.70;5.70;;;;;;;8.57;54.13;99514.36;104510;1266;111011;-81
2023/05/11 06:01:50;;;;;;;12.50;4.90;;;;;;;8.64;54.13;99514.98;104500;1267;97955;-81
2023/05/11 06:04:18;;;;;;;18.30;6.50;;;;;;;8.73;54.09;99518.77;104855;1266;107592;-82
2023/05/11 06:06:46;;;;;;;14.30;5.50;;;;;;;8.80;54.08;99518.14;104699;1264;98057;-81
2023/05/11 06:09:14;;;;;;;15.00;6.30;;;;;;;8.88;54.23;99522.82;104765;1266;97919;-81
2023/05/11 06:11:42;;;;;;;15.30;5.70;;;;;;;8.95;54.19;99518.35;104559;1269;111315;-81
2023/05/11 06:14:10;;;;;;;14.10;6.20;;;;;;;9.02;54.22;99514.91;104613;1266;97957;-78
2023/05/11 06:16:44;;;;;;;16.90;5.70;;;;;;;9.09;54.26;99521.08;104590;1263;107895;-81
2023/05/11 06:19:12;;;;;;;11.80;5.50;;;;;;;9.16;54.29;99518.33;104660;1276;98019;-79
2023/05/11 06:21:41;;;;;;;17.10;6.20;;;;;;;9.25;54.24;99516.24;105929;1263;98004;-78
2023/05/11 06:24:09;;;;;;;13.90;5.60;;;;;;;9.30;54.24;99517.54;107757;1262;111523;-78
2023/05/11 06:26:37;;;;;;;15.80;5.90;;;;;;;9.36;54.47;99515.17;105829;1265;98034;-78
2023/05/11 06:29:06;;;;;;;14.80;5.80;;;;;;;9.48;54.50;99517.33;104741;1266;107459;-78
2023/05/11 06:31:35;;;;;;;20.30;7.10;;;;;;;9.57;54.28;99522.45;104584;1266;98047;-80
2023/05/11 06:34:03;;;;;;;17.20;6.50;;;;;;;9.59;54.35;99520.89;106046;1266;99294;-77
2023/05/11 06:36:31;;;;;;;16.80;5.90;;;;;;;9.63;54.59;99520.88;106711;1263;111475;-78
2023/05/11 06:38:59;;;;;;;22.60;7.50;;;;;;;9.69;54.50;99518.54;107986;1263;95738;-78
2023/05/11 06:41:27;;;;;;;17.80;6.20;;;;;;;9.76;54.62;99522.70;108015;1264;106758;-78
2023/05/11 06:43:55;;;;;;;15.40;5.80;;;;;;;9.85;54.52;99520.05;104800;1270;97987;-80
2023/05/11 06:46:23;;;;;;;18.40;6.60;;;;;;;9.92;54.65;99515.86;104832;1268;98911;-80
2023/05/11 06:48:51;;;;;;;14.30;5.90;;;;;;;9.99;54.54;99518.79;104509;1272;110679;-81
2023/05/11 06:51:23;;;;;;;13.60;6.20;;;;;;;10.06;54.65;99521.19;104522;1273;98879;-79
2023/05/11 06:53:50;;;;;;;14.10;5.90;;;;;;;10.13;54.73;99518.61;104530;1276;108940;-78
2023/05/11 06:56:20;;;;;;;19.30;6.70;;;;;;;10.22;54.68;99522.67;104459;1264;97944;-80
2023/05/11 06:59:13;;;;;;;15.80;6.10;;;;;;;10.27;54.70;99519.50;104476;1268;98365;-82
2023/05/11 07:01:41;;;;;;;14.50;6.10;;;;;;;10.35;54.90;99516.34;104669;1263;110972;-81
2023/05/11 07:04:15;;;;;;;17.40;6.40;;;;;;;10.47;54.89;99518.64;104871;1278;97951;-80
2023/05/11 07:06:54;;;;;;;13.70;5.80;;;;;;;10.56;54.83;99520.36;104528;1271;106640;-84
2023/05/11 07:09:21;;;;;;;19.20;6.70;;;;;;;10.63;54.75;99516.33;104604;1268;97871;-82
2023/05/11 07:11:52;;;;;;;12.90;5.40;;;;;;;10.68;54.86;99513.90;104541;1267;97872;-81
2023/05/11 07:14:22;;;;;;;13.70;5.90;;;;;;;10.75;54.78;99516.11;104551;1269;110886;-82
2023/05/11 07:16:57;;;;;;;18.50;5.80;;;;;;;10.83;54.94;99513.63;104761;1267;99267;-82
2023/05/11 07:19:25;;;;;;;14.60;6.10;;;;;;;10.94;55.10;99514.35;104601;1266;107042;-81
2023/05/11 07:21:53;;;;;;;12.90;5.40;;;;;;;11.04;54.92;99514.69;104719;1276;99267;-84
2023/05/11 07:24:21;;;;;;;16.50;6.60;;;;;;;11.11;54.98;99511.43;104757;1269;98851;-80
2023/05/11 07:27:05;;;;;;;15.10;6.10;;;;;;;11.18;54.97;99506.16;104464;1269;111398;-82
2023/05/11 07:29:33;;;;;;;10.60;5.10;;;;;;;11.25;55.03;99506.36;104656;1264;98070;-81
2023/05/11 07:32:10;;;;;;;16.30;5.90;;;;;;;11.34;55.02;99512.16;104738;1264;107806;-83
2023/05/11 07:34:45;;;;;;;11.60;5.60;;;;;;;11.40;54.91;99513.55;104681;1268;97986;-81
2023/05/11 07:37:14;;;;;;;19.50;6.40;;;;;;;11.46;55.03;99512.93;104691;1267;98038;-80
2023/05/11 07:39:42;;;;;;;14.00;5.70;;;;;;;11.52;54.94;99511.80;104652;1268;110956;-80
2023/05/11 07:42:11;;;;;;;12.50;5.40;;;;;;;11.59;55.03;99516.66;104628;1276;98023;-83
2023/05/11 07:44:41;;;;;;;13.40;5.40;;;;;;;11.67;54.95;99517.52;104667;1268;108910;-82
2023/05/11 07:47:23;;;;;;;14.90;5.70;;;;;;;11.74;55.03;99521.65;104689;1268;97977;-84
2023/05/11 07:50:00;;;;;;;21.60;7.00;;;;;;;11.84;55.16;99522.38;104562;1264;97950;-82
2023/05/11 07:52:43;;;;;;;14.10;6.30;;;;;;;11.90;55.01;99523.70;104562;1268;110919;-83
2023/05/11 07:55:23;;;;;;;14.80;6.10;;;;;;;11.94;54.96;99523.30;104637;1284;97964;-83
2023/05/11 07:58:02;;;;;;;13.20;5.20;;;;;;;11.96;54.92;99521.04;104546;1268;107214;-86
2023/05/11 08:00:41;;;;;;;13.50;5.70;;;;;;;12.02;55.04;99520.44;104692;1268;99211;-85
2023/05/11 08:03:09;;;;;;;15.00;6.00;;;;;;;12.12;54.99;99519.61;104659;1273;99189;-81
2023/05/11 08:05:42;;;;;;;12.30;5.90;;;;;;;12.14;54.93;99522.77;104649;1271;112506;-82
2023/05/11 08:08:22;;;;;;;14.90;6.00;;;;;;;12.19;55.13;99524.23;104753;1279;97964;-82
2023/05/11 08:10:57;;;;;;;15.40;6.30;;;;;;;12.25;54.95;99523.78;104462;1270;107185;-85
2023/05/11 08:13:30;;;;;;;17.30;6.50;;;;;;;12.32;55.03;99524.54;104678;1267;97963;-81
2023/05/11 08:16:01;;;;;;;12.10;5.10;;;;;;;12.35;54.94;99522.15;104819;1268;97961;-82
2023/05/11 08:18:35;;;;;;;12.60;5.30;;;;;;;12.41;54.94;99525.13;104733;1269;111320;-84
2023/05/11 08:21:03;;;;;;;;;;;;;;;12.45;54.85;99518.99;104818;1278;98012;-83
2023/05/11 08:23:34;;;;;;;16.10;5.50;;;;;;;12.50;55.02;99523.04;104731;1267;107675;-84
2023/05/11 08:26:03;;;;;;;12.30;5.80;;;;;;;12.58;55.08;99519.45;104626;1269;99176;-81
2023/05/11 08:28:36;;;;;;;13.00;5.90;;;;;;;12.66;54.89;99516.54;104684;1270;98095;-82
2023/05/11 08:31:07;;;;;;;15.80;5.70;;;;;;;12.74;54.96;99515.92;104805;1264;111325;-82
2023/05/11 08:33:41;;;;;;;15.40;5.90;;;;;;;12.81;54.90;99513.27;104642;1270;98018;-82
2023/05/11 08:36:15;;;;;;;14.60;5.60;;;;;;;12.89;54.99;99514.48;104804;1271;107439;-84
2023/05/11 08:38:43;;;;;;;13.70;5.80;;;;;;;12.99;54.91;99511.27;104677;1271;97972;-84
2023/05/11 08:41:12;;;;;;;12.30;5.80;;;;;;;13.07;55.03;99514.16;104781;1264;97890;-82
2023/05/11 08:43:42;;;;;;;14.80;6.30;;;;;;;13.12;54.92;99513.84;104919;1263;111282;-79
2023/05/11 08:46:28;;;;;;;14.20;5.90;;;;;;;13.12;54.67;99510.09;104721;1267;97859;-82
2023/05/11 08:48:57;;;;;;;12.10;5.00;;;;;;;13.18;54.63;99510.70;104705;1267;107692;-82
2023/05/11 08:51:31;;;;;;;13.90;5.20;;;;;;;13.22;54.56;99511.10;104725;1264;97953;-84
2023/05/11 08:53:59;;;;;;;14.90;5.90;;;;;;;13.25;54.66;99511.23;104737;1267;101459;-83
2023/05/11 08:56:28;;;;;;;13.50;5.90;;;;;;;13.25;54.61;99509.42;104758;1271;109812;-78
2023/05/11 08:59:00;;;;;;;14.70;5.30;;;;;;;13.33;54.80;99502.22;104606;1267;99328;-84
2023/05/11 09:01:28;;;;;;;11.00;4.90;;;;;;;13.44;54.76;99501.63;104651;1269;106292;-80
2023/05/11 09:04:04;;;;;;;14.10;5.40;;;;;;;13.51;54.72;99500.02;104663;1266;97969;-83
2023/05/11 09:06:37;;;;;;;11.10;5.20;;;;;;;13.57;54.66;99503.48;104687;1275;98800;-84
2023/05/11 09:09:09;;;;;;;17.00;5.80;;;;;;;13.62;54.56;99501.99;104661;1264;111301;-83
2023/05/11 09:11:38;;;;;;;16.00;5.80;;;;;;;13.68;54.52;99501.02;104627;1269;97913;-84
2023/05/11 09:14:16;;;;;;;14.40;5.20;;;;;;;13.70;54.47;99500.85;104595;1267;107703;-84
2023/05/11 09:16:45;;;;;;;13.40;5.50;;;;;;;13.77;54.29;99505.30;104864;1268;98054;-83
2023/05/11 09:19:20;;;;;;;14.70;5.10;;;;;;;13.84;54.46;99501.03;104862;1267;97995;-83
2023/05/11 09:21:51;;;;;;;12.40;4.70;;;;;;;13.91;54.37;99498.31;104674;1267;112457;-83
2023/05/11 09:24:20;;;;;;;11.20;4.60;;;;;;;13.94;54.25;99500.89;104660;1275;97946;-82
2023/05/11 09:26:48;;;;;;;13.00;5.30;;;;;;;14.02;54.33;99499.73;104762;1282;107706;-83
2023/05/11 09:29:20;;;;;;;12.90;5.20;;;;;;;14.09;54.29;99497.25;104727;1266;98894;-82
2023/05/11 09:31:48;;;;;;;9.80;4.30;;;;;;;14.10;54.17;99493.23;104736;1267;98932;-86
2023/05/11 09:34:18;;;;;;;14.10;5.00;;;;;;;14.18;54.19;99493.27;104745;1271;110856;-86
2023/05/11 09:36:55;;;;;;;9.00;4.40;;;;;;;14.31;54.20;99487.66;104877;1268;97873;-86
2023/05/11 09:39:36;;;;;;;13.30;5.00;;;;;;;14.37;53.95;99487.52;104987;1269;107699;-89
2023/05/11 09:42:22;;;;;;;10.60;4.40;;;;;;;14.40;53.90;99485.95;104556;1271;97957;-84
2023/05/11 09:44:57;;;;;;;12.30;5.00;;;;;;;14.45;53.97;99485.44;104817;1264;97893;-82
2023/05/11 09:47:26;;;;;;;8.60;4.30;;;;;;;14.54;53.84;99486.66;104757;1264;111251;-82
2023/05/11 09:49:55;;;;;;;7.40;3.50;;;;;;;14.57;53.72;99473.73;104725;1264;99291;-83
2023/05/11 09:52:25;;;;;;;8.10;3.60;;;;;;;14.65;53.83;99471.27;104630;1267;107166;-83
2023/05/11 09:54:53;;;;;;;8.30;3.80;;;;;;;14.73;53.64;99466.18;104650;1267;98056;-83
2023/05/11 09:57:26;;;;;;;11.80;4.30;;;;;;;14.78;53.64;99466.02;104666;1268;98752;-83
2023/05/11 09:59:58;;;;;;;11.30;4.50;;;;;;;14.82;53.57;99464.76;104786;1264;110262;-85
2023/05/11 10:02:30;;;;;;;8.80;4.00;;;;;;;14.84;53.44;99464.18;104837;1266;97967;-87
2023/05/11 10:05:00;;;;;;;12.60;4.10;;;;;;;14.88;53.06;99460.44;104792;1267;106020;-80
2023/05/11 10:07:32;;;;;;;8.30;3.70;;;;;;;14.97;53.27;99453.16;104821;1267;97970;-80
2023/05/11 10:10:07;;;;;;;10.10;3.90;;;;;;;15.04;52.74;99448.81;104524;1264;99277;-80
2023/05/11 10:12:41;;;;;;;9.20;3.90;;;;;;;15.12;52.98;99442.42;104637;1264;110258;-83
2023/05/11 10:15:16;;;;;;;9.20;3.80;;;;;;;15.14;53.11;99442.06;104729;1266;98801;-85
2023/05/11 10:17:44;;;;;;;11.80;4.30;;;;;;;15.16;52.93;99437.06;104705;1263;106697;-85
2023/05/11 10:20:13;;;;;;;10.30;3.40;;;;;;;15.23;52.83;99439.30;104641;1267;98362;-84
2023/05/11 10:22:44;;;;;;;11.70;3.80;;;;;;;15.29;52.90;99437.55;104774;1268;97983;-83
2023/05/11 10:25:14;;;;;;;10.70;3.60;;;;;;;15.34;52.51;99435.52;104616;1276;111251;-83
2023/05/11 10:27:46;;;;;;;7.30;3.70;;;;;;;15.36;52.45;99436.27;104792;1264;97961;-85
2023/05/11 10:30:29;;;;;;;10.00;3.40;;;;;;;15.37;52.53;99432.94;104657;1264;107599;-86
2023/05/11 10:32:59;;;;;;;7.20;3.90;;;;;;;15.37;52.50;99429.16;104725;1268;97978;-82
2023/05/11 10:35:29;;;;;;;5.20;3.20;;;;;;;15.43;52.49;99432.77;104676;1265;97944;-81
2023/05/11 10:37:57;;;;;;;14.60;3.60;;;;;;;15.49;52.28;99435.27;105111;1267;112475;-80
2023/05/11 10:40:26;;;;;;;8.80;3.90;;;;;;;15.52;52.32;99432.38;107310;1264;97032;-80
2023/05/11 10:43:14;;;;;;;13.60;4.10;;;;;;;15.58;51.91;99426.42;105082;1264;106612;-80
2023/05/11 10:46:27;;;;;;;9.90;3.60;;;;;;;15.66;52.00;99423.64;106378;1263;99281;-80
2023/05/11 10:49:32;;;;;;;9.10;3.60;;;;;;;15.78;51.65;99420.98;105457;1263;98048;-80
2023/05/11 10:52:30;;;;;;;9.60;3.60;;;;;;;15.79;51.50;99421.91;105223;1263;110209;-80
2023/05/11 10:55:23;;;;;;;10.40;3.30;;;;;;;15.84;51.29;99415.08;104614;1264;97893;-80
2023/05/11 10:57:57;;;;;;;5.70;2.70;;;;;;;15.96;50.97;99415.69;104606;1267;107908;-80
2023/05/11 11:01:14;;;;;;;7.60;2.90;;;;;;;16.00;51.05;99415.66;104558;1267;97960;-81
2023/05/11 11:03:56;;;;;;;6.90;3.30;;;;;;;16.02;50.85;99411.67;104555;1276;97968;-80
2023/05/11 11:06:24;;;;;;;7.50;3.40;;;;;;;16.00;51.00;99409.95;104580;1266;111682;-80
2023/05/11 11:09:00;;;;;;;8.30;3.40;;;;;;;16.04;50.92;99403.64;104880;1264;98052;-80
2023/05/11 11:11:32;;;;;;;6.50;3.10;;;;;;;16.18;50.99;99401.86;104535;1263;108578;-84
2023/05/11 11:14:04;;;;;;;8.70;3.40;;;;;;;16.29;50.27;99406.43;104637;1263;97912;-83
2023/05/11 11:16:32;;;;;;;5.00;2.90;;;;;;;16.38;50.31;99403.13;104550;1267;99159;-80
2023/05/11 11:19:31;;;;;;;8.90;2.70;;;;;;;16.38;50.28;99398.13;104515;1263;110596;-79
2023/05/11 11:22:01;;;;;;;11.90;3.30;;;;;;;16.44;50.24;99398.33;104717;1264;99390;-80
2023/05/11 11:24:38;;;;;;;6.60;2.90;;;;;;;16.53;50.30;99401.77;104702;1264;106683;-79
2023/05/11 11:27:08;;;;;;;6.70;2.90;;;;;;;16.59;49.84;99399.05;104879;1266;98044;-83
2023/05/11 11:29:39;;;;;;;5.80;2.70;;;;;;;16.69;49.95;99396.66;104767;1267;97946;-83
2023/05/11 11:32:23;;;;;;;5.70;3.00;;;;;;;16.82;49.72;99392.84;105048;1277;111292;-83
2023/05/11 11:34:51;;;;;;;6.40;3.30;;;;;;;17.03;49.35;99398.05;104734;1264;97884;-83
2023/05/11 11:37:21;;;;;;;5.50;2.70;;;;;;;17.18;49.45;99392.29;104663;1263;106040;-85
2023/05/11 11:39:52;;;;;;;4.20;2.90;;;;;;;17.22;49.21;99394.11;104568;1269;98088;-87